Monday, August 20, 2018, 1:13 AM EDT
Back to Local

KTEB, Teterboro Airport

Location: South Hackensack, NJ, United States Lat: 40.867
Local Time: 1:13 AM EDT ( 5:13 GMT) Lon: -74.05
Time Zone: US/Eastern Elev: 9 ft

Show me the last for .
Show Decoded

2018-08-20 00:51 METAR KTEB 200451Z 09006KT 10SM OVC085 22/16 A3009 RMK AO2 SLP187 T02170156
                 402330200 $ =
2018-08-19 23:51 METAR KTEB 200351Z 07006KT 10SM FEW065 OVC080 22/15 A3008 RMK AO2 SLP185
                 T02220150 $ =
2018-08-19 22:51 METAR KTEB 200251Z 06003KT 10SM SCT025 BKN043 OVC065 22/18 A3008 RMK AO2 SLP184
                 60000 T02220183 51015 $ =
2018-08-19 21:51 METAR KTEB 200151Z 05004KT 10SM OVC045 22/19 A3006 RMK AO2 SLP179 T02220189 $ =
2018-08-19 20:51 METAR KTEB 200051Z 04003KT 10SM BKN060 OVC085 22/18 A3005 RMK AO2 RAB12E20
                 SLP175 P0000 T02220183 $ =
2018-08-19 19:51 METAR KTEB 192351Z 05003KT 10SM BKN055 OVC070 23/18 A3003 RMK AO2 SLP169 60002
                 T02280183 10233 20217 51011 $ =
2018-08-19 18:51 METAR KTEB 192251Z 05004KT 10SM OVC055 23/18 A3003 RMK AO2 SLP167 T02280183 $ =
2018-08-19 17:51 METAR KTEB 192151Z 04004KT 10SM OVC048 23/18 A3001 RMK AO2 SLP163 T02280183 $ =
2018-08-19 16:51 METAR KTEB 192051Z 03003KT 10SM OVC043 23/19 A3000 RMK AO2 DZE29 SLP158 P0000
                 60002 T02330189 53003 $ =
2018-08-19 15:51 METAR KTEB 191951Z 04003KT 10SM -DZ FEW018 OVC041 23/19 A2999 RMK AO2 SLP156
                 P0001 T02280189 $ =
2018-08-19 15:19 METAR KTEB 191919Z 05004KT 10SM -DZ OVC041 22/18 A2999 =
2018-08-19 14:51 METAR KTEB 191851Z 36004KT 4SM -DZ OVC026 22/18 A2999 RMK AO2 RAB1759E43DZB43
                 SLP156 P0001 T02220183 $ =
2018-08-19 13:51 METAR KTEB 191751Z 09005KT 10SM OVC026 22/18 A2999 RMK AO2 DZB1658E46 SLP155
                 P0000 60001 T02220178 10228 20200 53004 $ =
2018-08-19 12:51 METAR KTEB 191651Z 06007KT 10SM OVC026 22/17 A2999 RMK AO2 SLP154 T02220172 $ =
2018-08-19 11:51 METAR KTEB 191551Z 04006KT 10SM OVC024 22/17 A2998 RMK AO2 SLP153 T02220172 $ =
2018-08-19 10:51 METAR KTEB 191451Z 06006KT 10SM OVC021 22/17 A2998 RMK AO2 SLP152 60001
                 T02170172 53017 $ =
2018-08-19 09:51 METAR KTEB 191351Z 03006KT 10SM BKN019 21/18 A2996 RMK AO2 SLP146 T02110178 $ =
2018-08-19 09:24 METAR KTEB 191324Z 04008KT 8SM BKN015 OVC023 21/18 A2995 RMK AO2 T02060178 $ =
2018-08-19 08:51 METAR KTEB 191251Z 04007KT 3SM BR BKN010 BKN013 OVC021 21/18 A2995 RMK AO2 SFC
                 VIS 4 RAE23 SLP140 P0001 T02060183 $ =
2018-08-19 08:29 METAR KTEB 191229Z 04006KT 3SM BR BKN010 BKN013 OVC021 21/19 A2995 RMK AO2 SFC
                 VIS 4 RAE23 P0001 T02060189 $ =
2018-08-19 07:54 METAR KTEB 191154Z 04006KT 1 1/2SM -RA BR BKN007 BKN013 OVC021 20/19 A2993 RMK
                 AO2 P0001 T02000194 $ =
2018-08-19 07:51 METAR KTEB 191151Z 04006KT 2SM -RA BR FEW009 FEW013 OVC021 21/19 A2993 RMK AO2
                 DZE03RAB03E41B45 SLP135 P0000 60000 70011 T02060194 10217 20206 53019 $ =
2018-08-19 07:44 METAR KTEB 191144Z 03007KT 4SM BR FEW009 BKN015 OVC021 21/19 A2993 RMK AO2
                 DZE03RAB03E41 P0000 T02060194 $ =
2018-08-19 06:51 METAR KTEB 191051Z 02005KT 6SM -DZ BR FEW006 BKN013 OVC019 21/19 A2991 RMK AO2
                 RAB0957E00DZB00 SLP128 P0000 T02060194 $ =
2018-08-19 06:20 METAR KTEB 191020Z 01004KT 4SM -DZ BR BKN011 OVC021 21/19 A2990 RMK AO2
                 RAB0957E00DZB00 P0000 T02060194 $ =
2018-08-19 05:51 METAR KTEB 190951Z 05004KT 8SM BKN015 OVC022 21/19 A2989 RMK AO2 SLP120
                 T02110189 $ =
2018-08-19 04:51 METAR KTEB 190851Z 02006KT 10SM OVC017 22/18 A2987 RMK AO2 SLP116 T02170183
                 51009 $ =
2018-08-19 03:51 METAR KTEB 190751Z 01005KT 10SM OVC023 22/18 A2987 RMK AO2 SLP113 T02170183 $ =
2018-08-19 02:51 METAR KTEB 190651Z 03005KT 10SM OVC027 22/18 A2986 RMK AO2 SLP111 T02170178 $ =
2018-08-19 01:51 METAR KTEB 190551Z 02006KT 10SM SCT030 OVC070 22/18 A2985 RMK AO2 SLP106 60001
                 T02170183 10239 20211 58001 $ =

Support USWX by starting your Amazon purchase here.